sensor_id;sensor_type;location;lat;lon;timestamp;noise_LAeq;noise_LA_min;noise_LA_max;noise_LA01;noise_LA95
72805;Laerm;60920;48.748;19.142;2023-12-14T00:00:15;30.46;29.17;31.68;;
72805;Laerm;60920;48.748;19.142;2023-12-14T00:02:40;30.47;28.98;31.82;;
72805;Laerm;60920;48.748;19.142;2023-12-14T00:05:05;30.46;29.23;31.75;;
72805;Laerm;60920;48.748;19.142;2023-12-14T00:07:31;30.48;29.05;31.67;;
72805;Laerm;60920;48.748;19.142;2023-12-14T00:09:56;30.47;29.07;31.76;;
72805;Laerm;60920;48.748;19.142;2023-12-14T00:12:21;30.47;29.17;31.47;;
72805;Laerm;60920;48.748;19.142;2023-12-14T00:14:47;30.48;29.25;31.77;;
72805;Laerm;60920;48.748;19.142;2023-12-14T00:17:12;30.46;29.19;31.64;;
72805;Laerm;60920;48.748;19.142;2023-12-14T00:19:37;30.46;29.06;31.74;;
72805;Laerm;60920;48.748;19.142;2023-12-14T00:22:02;30.45;29.12;31.68;;
72805;Laerm;60920;48.748;19.142;2023-12-14T00:24:28;30.46;29.09;31.74;;
72805;Laerm;60920;48.748;19.142;2023-12-14T00:26:53;30.46;29.27;31.82;;
72805;Laerm;60920;48.748;19.142;2023-12-14T00:29:18;30.48;29.23;31.79;;
72805;Laerm;60920;48.748;19.142;2023-12-14T00:31:44;30.48;29.15;31.78;;
72805;Laerm;60920;48.748;19.142;2023-12-14T00:34:09;30.47;29.18;31.81;;
72805;Laerm;60920;48.748;19.142;2023-12-14T00:36:34;30.45;29.17;31.84;;
72805;Laerm;60920;48.748;19.142;2023-12-14T00:39:00;30.46;29.15;31.69;;
72805;Laerm;60920;48.748;19.142;2023-12-14T00:41:25;30.48;28.64;31.65;;
72805;Laerm;60920;48.748;19.142;2023-12-14T00:43:50;30.47;28.98;31.66;;
72805;Laerm;60920;48.748;19.142;2023-12-14T00:46:15;30.46;29.13;31.55;;
72805;Laerm;60920;48.748;19.142;2023-12-14T00:48:41;30.46;29.16;31.71;;
72805;Laerm;60920;48.748;19.142;2023-12-14T00:51:06;30.47;29.11;31.82;;
72805;Laerm;60920;48.748;19.142;2023-12-14T00:53:31;30.46;28.97;31.61;;
72805;Laerm;60920;48.748;19.142;2023-12-14T00:55:56;30.45;29.21;31.58;;
72805;Laerm;60920;48.748;19.142;2023-12-14T00:58:22;30.46;29.04;31.62;;
72805;Laerm;60920;48.748;19.142;2023-12-14T01:00:47;30.47;28.85;31.72;;
72805;Laerm;60920;48.748;19.142;2023-12-14T01:03:12;30.47;29.23;31.59;;
72805;Laerm;60920;48.748;19.142;2023-12-14T01:05:37;30.45;28.94;31.71;;
72805;Laerm;60920;48.748;19.142;2023-12-14T01:08:03;30.45;29.26;31.58;;
72805;Laerm;60920;48.748;19.142;2023-12-14T01:10:28;30.45;29.09;31.62;;
72805;Laerm;60920;48.748;19.142;2023-12-14T01:12:53;30.46;29.06;31.72;;
72805;Laerm;60920;48.748;19.142;2023-12-14T01:15:19;30.49;29.31;31.83;;
72805;Laerm;60920;48.748;19.142;2023-12-14T01:17:44;30.47;28.93;31.74;;
72805;Laerm;60920;48.748;19.142;2023-12-14T01:20:10;30.46;29.28;31.68;;
72805;Laerm;60920;48.748;19.142;2023-12-14T01:22:35;30.45;29.17;31.82;;
72805;Laerm;60920;48.748;19.142;2023-12-14T01:25:00;30.48;28.90;31.66;;
72805;Laerm;60920;48.748;19.142;2023-12-14T01:27:26;30.46;29.17;31.66;;
72805;Laerm;60920;48.748;19.142;2023-12-14T01:29:51;30.46;29.04;31.65;;
72805;Laerm;60920;48.748;19.142;2023-12-14T01:32:16;30.46;29.10;31.80;;
72805;Laerm;60920;48.748;19.142;2023-12-14T01:34:42;30.45;29.26;31.70;;
72805;Laerm;60920;48.748;19.142;2023-12-14T01:37:07;30.46;29.27;31.66;;
72805;Laerm;60920;48.748;19.142;2023-12-14T01:39:32;30.44;29.15;31.67;;
72805;Laerm;60920;48.748;19.142;2023-12-14T01:41:58;30.44;29.16;31.57;;
72805;Laerm;60920;48.748;19.142;2023-12-14T01:44:23;30.45;29.12;31.63;;
72805;Laerm;60920;48.748;19.142;2023-12-14T01:46:48;30.44;29.06;31.59;;
72805;Laerm;60920;48.748;19.142;2023-12-14T01:49:14;30.44;29.10;31.91;;
72805;Laerm;60920;48.748;19.142;2023-12-14T01:51:39;30.46;29.25;31.68;;
72805;Laerm;60920;48.748;19.142;2023-12-14T01:54:04;30.45;29.03;31.67;;
72805;Laerm;60920;48.748;19.142;2023-12-14T01:56:30;30.45;29.24;31.70;;
72805;Laerm;60920;48.748;19.142;2023-12-14T01:58:55;30.44;29.13;31.50;;
72805;Laerm;60920;48.748;19.142;2023-12-14T02:01:27;30.44;29.16;31.62;;
72805;Laerm;60920;48.748;19.142;2023-12-14T02:03:54;30.45;29.14;31.69;;
72805;Laerm;60920;48.748;19.142;2023-12-14T02:06:19;30.45;29.17;31.77;;
72805;Laerm;60920;48.748;19.142;2023-12-14T02:08:45;30.46;29.16;31.68;;
72805;Laerm;60920;48.748;19.142;2023-12-14T02:11:10;30.46;29.14;31.59;;
72805;Laerm;60920;48.748;19.142;2023-12-14T02:13:36;30.46;29.15;31.87;;
72805;Laerm;60920;48.748;19.142;2023-12-14T02:16:01;30.47;29.22;31.77;;
72805;Laerm;60920;48.748;19.142;2023-12-14T02:18:26;30.45;28.96;31.58;;
72805;Laerm;60920;48.748;19.142;2023-12-14T02:20:52;30.47;29.25;31.69;;
72805;Laerm;60920;48.748;19.142;2023-12-14T02:23:17;30.46;28.96;31.98;;
72805;Laerm;60920;48.748;19.142;2023-12-14T02:25:42;30.46;29.12;31.69;;
72805;Laerm;60920;48.748;19.142;2023-12-14T02:28:08;30.44;29.18;31.58;;
72805;Laerm;60920;48.748;19.142;2023-12-14T02:30:33;30.46;29.20;31.82;;
72805;Laerm;60920;48.748;19.142;2023-12-14T02:32:58;30.47;29.13;31.67;;
72805;Laerm;60920;48.748;19.142;2023-12-14T02:35:23;30.46;29.24;31.70;;
72805;Laerm;60920;48.748;19.142;2023-12-14T02:37:49;30.45;29.27;31.72;;
72805;Laerm;60920;48.748;19.142;2023-12-14T02:40:14;30.47;29.19;31.80;;
72805;Laerm;60920;48.748;19.142;2023-12-14T02:42:39;30.46;29.25;31.46;;
72805;Laerm;60920;48.748;19.142;2023-12-14T02:45:05;30.45;29.05;31.74;;
72805;Laerm;60920;48.748;19.142;2023-12-14T02:47:31;30.44;29.20;31.60;;
72805;Laerm;60920;48.748;19.142;2023-12-14T02:49:56;30.44;29.15;31.54;;
72805;Laerm;60920;48.748;19.142;2023-12-14T02:52:21;30.48;29.09;31.68;;
72805;Laerm;60920;48.748;19.142;2023-12-14T02:54:47;30.48;29.23;31.88;;
72805;Laerm;60920;48.748;19.142;2023-12-14T02:57:12;30.48;29.18;31.89;;
72805;Laerm;60920;48.748;19.142;2023-12-14T02:59:37;30.48;29.26;31.81;;
72805;Laerm;60920;48.748;19.142;2023-12-14T03:02:04;30.48;29.19;31.65;;
72805;Laerm;60920;48.748;19.142;2023-12-14T03:04:29;30.47;29.15;31.62;;
72805;Laerm;60920;48.748;19.142;2023-12-14T03:06:55;30.47;29.27;31.75;;
72805;Laerm;60920;48.748;19.142;2023-12-14T03:09:21;30.47;28.89;31.55;;
72805;Laerm;60920;48.748;19.142;2023-12-14T03:11:46;30.46;28.94;31.73;;
72805;Laerm;60920;48.748;19.142;2023-12-14T03:14:11;30.46;29.00;31.73;;
72805;Laerm;60920;48.748;19.142;2023-12-14T03:16:37;30.46;29.15;31.79;;
72805;Laerm;60920;48.748;19.142;2023-12-14T03:19:02;30.45;29.19;31.89;;
72805;Laerm;60920;48.748;19.142;2023-12-14T03:21:28;30.45;28.73;31.54;;
72805;Laerm;60920;48.748;19.142;2023-12-14T03:23:53;30.44;29.11;31.68;;
72805;Laerm;60920;48.748;19.142;2023-12-14T03:26:19;30.45;29.25;31.66;;
72805;Laerm;60920;48.748;19.142;2023-12-14T03:28:44;30.46;29.22;31.57;;
72805;Laerm;60920;48.748;19.142;2023-12-14T03:31:12;30.46;29.19;31.90;;
72805;Laerm;60920;48.748;19.142;2023-12-14T03:33:38;30.46;29.22;31.65;;
72805;Laerm;60920;48.748;19.142;2023-12-14T03:36:04;30.45;29.22;31.55;;
72805;Laerm;60920;48.748;19.142;2023-12-14T03:38:29;30.44;29.12;31.66;;
72805;Laerm;60920;48.748;19.142;2023-12-14T03:40:54;30.46;29.21;31.52;;
72805;Laerm;60920;48.748;19.142;2023-12-14T03:43:20;30.46;29.33;31.54;;
72805;Laerm;60920;48.748;19.142;2023-12-14T03:45:45;30.46;28.85;31.59;;
72805;Laerm;60920;48.748;19.142;2023-12-14T03:48:10;30.44;29.00;31.79;;
72805;Laerm;60920;48.748;19.142;2023-12-14T03:50:36;30.45;29.09;31.64;;
72805;Laerm;60920;48.748;19.142;2023-12-14T03:53:01;30.43;29.14;31.64;;
72805;Laerm;60920;48.748;19.142;2023-12-14T03:55:26;30.44;29.09;31.54;;
72805;Laerm;60920;48.748;19.142;2023-12-14T03:57:52;30.45;29.25;31.68;;
72805;Laerm;60920;48.748;19.142;2023-12-14T04:00:17;30.44;29.06;31.66;;
72805;Laerm;60920;48.748;19.142;2023-12-14T04:02:42;30.43;29.13;31.63;;
72805;Laerm;60920;48.748;19.142;2023-12-14T04:05:08;30.44;29.21;31.62;;
72805;Laerm;60920;48.748;19.142;2023-12-14T04:07:36;30.45;28.83;31.77;;
72805;Laerm;60920;48.748;19.142;2023-12-14T04:10:02;30.43;29.08;31.63;;
72805;Laerm;60920;48.748;19.142;2023-12-14T04:12:27;30.44;29.16;31.66;;
72805;Laerm;60920;48.748;19.142;2023-12-14T04:14:52;30.45;29.31;31.77;;
72805;Laerm;60920;48.748;19.142;2023-12-14T04:17:18;30.45;29.16;31.74;;
72805;Laerm;60920;48.748;19.142;2023-12-14T04:19:43;30.45;29.26;31.65;;
72805;Laerm;60920;48.748;19.142;2023-12-14T04:22:08;30.44;29.05;31.48;;
72805;Laerm;60920;48.748;19.142;2023-12-14T04:24:34;30.44;29.08;31.90;;
72805;Laerm;60920;48.748;19.142;2023-12-14T04:26:59;30.44;29.16;31.71;;
72805;Laerm;60920;48.748;19.142;2023-12-14T04:29:25;30.43;29.13;31.77;;
72805;Laerm;60920;48.748;19.142;2023-12-14T04:31:50;30.44;29.08;31.77;;
72805;Laerm;60920;48.748;19.142;2023-12-14T04:34:16;30.44;29.03;31.66;;
72805;Laerm;60920;48.748;19.142;2023-12-14T04:36:42;30.45;29.06;31.78;;
72805;Laerm;60920;48.748;19.142;2023-12-14T04:39:07;30.44;29.03;31.81;;
72805;Laerm;60920;48.748;19.142;2023-12-14T04:41:33;30.44;29.30;31.55;;
72805;Laerm;60920;48.748;19.142;2023-12-14T04:43:58;30.44;29.00;31.68;;
72805;Laerm;60920;48.748;19.142;2023-12-14T04:46:23;30.44;29.20;31.65;;
72805;Laerm;60920;48.748;19.142;2023-12-14T04:48:49;30.44;28.96;31.61;;
72805;Laerm;60920;48.748;19.142;2023-12-14T04:51:14;30.45;29.24;31.67;;
72805;Laerm;60920;48.748;19.142;2023-12-14T04:53:39;30.44;29.02;31.91;;
72805;Laerm;60920;48.748;19.142;2023-12-14T04:56:05;30.44;29.09;31.56;;
72805;Laerm;60920;48.748;19.142;2023-12-14T04:58:34;30.45;29.13;31.76;;
72805;Laerm;60920;48.748;19.142;2023-12-14T05:00:59;30.47;29.21;31.71;;
72805;Laerm;60920;48.748;19.142;2023-12-14T05:03:25;30.46;28.93;31.61;;
72805;Laerm;60920;48.748;19.142;2023-12-14T05:05:50;30.47;29.25;31.54;;
72805;Laerm;60920;48.748;19.142;2023-12-14T05:08:15;30.45;29.02;31.56;;
72805;Laerm;60920;48.748;19.142;2023-12-14T05:10:40;30.45;29.08;31.74;;
72805;Laerm;60920;48.748;19.142;2023-12-14T05:13:06;30.45;29.14;31.53;;
72805;Laerm;60920;48.748;19.142;2023-12-14T05:15:31;30.45;29.04;31.68;;
72805;Laerm;60920;48.748;19.142;2023-12-14T05:17:56;30.45;29.21;31.65;;
72805;Laerm;60920;48.748;19.142;2023-12-14T05:20:22;30.46;29.30;31.68;;
72805;Laerm;60920;48.748;19.142;2023-12-14T05:22:47;30.48;29.14;31.71;;
72805;Laerm;60920;48.748;19.142;2023-12-14T05:25:12;30.50;29.11;32.07;;
72805;Laerm;60920;48.748;19.142;2023-12-14T05:27:38;30.47;29.17;31.77;;
72805;Laerm;60920;48.748;19.142;2023-12-14T05:30:03;30.48;28.98;31.53;;
72805;Laerm;60920;48.748;19.142;2023-12-14T05:32:29;30.47;29.26;31.67;;
72805;Laerm;60920;48.748;19.142;2023-12-14T05:34:54;30.48;29.09;31.68;;
72805;Laerm;60920;48.748;19.142;2023-12-14T05:37:19;30.48;29.02;31.83;;
72805;Laerm;60920;48.748;19.142;2023-12-14T05:39:45;30.50;28.76;32.09;;
72805;Laerm;60920;48.748;19.142;2023-12-14T05:42:10;30.48;28.79;31.72;;
72805;Laerm;60920;48.748;19.142;2023-12-14T05:44:36;30.49;29.35;31.67;;
72805;Laerm;60920;48.748;19.142;2023-12-14T05:47:01;30.49;29.19;31.56;;
72805;Laerm;60920;48.748;19.142;2023-12-14T05:49:26;30.47;29.12;31.89;;
72805;Laerm;60920;48.748;19.142;2023-12-14T05:51:51;30.46;29.16;31.64;;
72805;Laerm;60920;48.748;19.142;2023-12-14T05:54:17;30.47;29.04;31.65;;
72805;Laerm;60920;48.748;19.142;2023-12-14T05:56:42;30.47;29.12;31.63;;
72805;Laerm;60920;48.748;19.142;2023-12-14T05:59:07;30.48;29.05;31.84;;
72805;Laerm;60920;48.748;19.142;2023-12-14T06:01:33;30.48;29.17;31.77;;
72805;Laerm;60920;48.748;19.142;2023-12-14T06:03:58;30.47;29.16;31.80;;
72805;Laerm;60920;48.748;19.142;2023-12-14T06:06:23;30.48;29.20;31.68;;
72805;Laerm;60920;48.748;19.142;2023-12-14T06:08:49;30.47;29.24;31.60;;
72805;Laerm;60920;48.748;19.142;2023-12-14T06:11:14;30.49;29.20;31.93;;
72805;Laerm;60920;48.748;19.142;2023-12-14T06:13:39;30.47;29.14;31.74;;
72805;Laerm;60920;48.748;19.142;2023-12-14T06:16:05;30.46;28.99;31.51;;
72805;Laerm;60920;48.748;19.142;2023-12-14T06:18:31;30.47;29.15;31.59;;
72805;Laerm;60920;48.748;19.142;2023-12-14T06:20:57;30.47;29.22;31.98;;
72805;Laerm;60920;48.748;19.142;2023-12-14T06:23:22;30.48;29.07;31.86;;
72805;Laerm;60920;48.748;19.142;2023-12-14T06:25:48;30.51;29.12;32.17;;
72805;Laerm;60920;48.748;19.142;2023-12-14T06:28:13;30.46;29.25;31.85;;
72805;Laerm;60920;48.748;19.142;2023-12-14T06:30:38;30.49;29.26;31.77;;
72805;Laerm;60920;48.748;19.142;2023-12-14T06:33:03;30.46;29.18;31.76;;
72805;Laerm;60920;48.748;19.142;2023-12-14T06:35:29;30.47;29.11;31.71;;
72805;Laerm;60920;48.748;19.142;2023-12-14T06:37:54;30.50;29.20;31.82;;
72805;Laerm;60920;48.748;19.142;2023-12-14T06:40:19;30.49;29.02;31.66;;
72805;Laerm;60920;48.748;19.142;2023-12-14T06:42:44;30.52;29.09;31.60;;
72805;Laerm;60920;48.748;19.142;2023-12-14T06:45:10;30.52;29.30;31.81;;
72805;Laerm;60920;48.748;19.142;2023-12-14T06:47:35;30.51;28.73;31.63;;
72805;Laerm;60920;48.748;19.142;2023-12-14T06:50:00;30.50;29.18;32.06;;
72805;Laerm;60920;48.748;19.142;2023-12-14T06:52:26;30.51;29.30;31.81;;
72805;Laerm;60920;48.748;19.142;2023-12-14T06:54:51;30.49;29.09;31.94;;
72805;Laerm;60920;48.748;19.142;2023-12-14T06:57:16;30.49;29.33;31.73;;
72805;Laerm;60920;48.748;19.142;2023-12-14T06:59:42;30.50;29.26;31.70;;
72805;Laerm;60920;48.748;19.142;2023-12-14T07:02:07;30.54;29.15;36.29;;
72805;Laerm;60920;48.748;19.142;2023-12-14T07:04:32;30.51;28.99;31.78;;
72805;Laerm;60920;48.748;19.142;2023-12-14T07:06:58;30.47;29.14;31.74;;
72805;Laerm;60920;48.748;19.142;2023-12-14T07:09:23;30.48;28.80;31.67;;
72805;Laerm;60920;48.748;19.142;2023-12-14T07:11:49;30.50;29.18;31.71;;
72805;Laerm;60920;48.748;19.142;2023-12-14T07:14:14;30.51;29.19;31.94;;
72805;Laerm;60920;48.748;19.142;2023-12-14T07:16:40;30.49;29.15;31.77;;
72805;Laerm;60920;48.748;19.142;2023-12-14T07:19:05;30.47;29.12;31.70;;
72805;Laerm;60920;48.748;19.142;2023-12-14T07:21:30;30.46;28.89;31.66;;
72805;Laerm;60920;48.748;19.142;2023-12-14T07:23:56;30.47;29.32;31.72;;
72805;Laerm;60920;48.748;19.142;2023-12-14T07:26:21;30.49;29.29;31.66;;
72805;Laerm;60920;48.748;19.142;2023-12-14T07:28:46;30.52;29.23;31.85;;
72805;Laerm;60920;48.748;19.142;2023-12-14T07:31:12;30.49;29.17;31.70;;
72805;Laerm;60920;48.748;19.142;2023-12-14T07:33:37;30.49;29.25;31.85;;
72805;Laerm;60920;48.748;19.142;2023-12-14T07:36:02;30.46;29.03;31.72;;
72805;Laerm;60920;48.748;19.142;2023-12-14T07:38:30;30.47;29.23;31.55;;
72805;Laerm;60920;48.748;19.142;2023-12-14T07:40:55;30.47;29.04;31.75;;
72805;Laerm;60920;48.748;19.142;2023-12-14T07:43:20;30.50;29.29;31.60;;
72805;Laerm;60920;48.748;19.142;2023-12-14T07:45:46;30.49;29.24;31.86;;
72805;Laerm;60920;48.748;19.142;2023-12-14T07:48:11;30.48;29.30;31.66;;
72805;Laerm;60920;48.748;19.142;2023-12-14T07:50:36;30.49;29.30;31.61;;
72805;Laerm;60920;48.748;19.142;2023-12-14T07:53:02;30.48;29.04;31.81;;
72805;Laerm;60920;48.748;19.142;2023-12-14T07:55:27;30.49;29.30;31.74;;
72805;Laerm;60920;48.748;19.142;2023-12-14T07:57:54;30.51;29.27;31.68;;
72805;Laerm;60920;48.748;19.142;2023-12-14T08:00:19;30.51;29.06;31.65;;
72805;Laerm;60920;48.748;19.142;2023-12-14T08:02:44;30.51;29.20;31.69;;
72805;Laerm;60920;48.748;19.142;2023-12-14T08:05:10;30.49;28.98;31.72;;
72805;Laerm;60920;48.748;19.142;2023-12-14T08:07:35;30.50;29.08;31.64;;
72805;Laerm;60920;48.748;19.142;2023-12-14T08:10:01;30.50;29.24;31.74;;
72805;Laerm;60920;48.748;19.142;2023-12-14T08:12:26;30.49;29.01;31.71;;
72805;Laerm;60920;48.748;19.142;2023-12-14T08:14:51;30.53;29.14;31.76;;
72805;Laerm;60920;48.748;19.142;2023-12-14T08:17:17;30.53;29.36;31.69;;
72805;Laerm;60920;48.748;19.142;2023-12-14T08:19:42;30.54;29.16;31.69;;
72805;Laerm;60920;48.748;19.142;2023-12-14T08:22:08;30.52;29.00;31.92;;
72805;Laerm;60920;48.748;19.142;2023-12-14T08:24:36;30.53;29.14;31.65;;
72805;Laerm;60920;48.748;19.142;2023-12-14T08:27:01;30.52;29.21;31.82;;
72805;Laerm;60920;48.748;19.142;2023-12-14T08:29:26;30.56;29.31;32.89;;
72805;Laerm;60920;48.748;19.142;2023-12-14T08:31:52;30.53;29.13;31.86;;
72805;Laerm;60920;48.748;19.142;2023-12-14T08:34:17;30.55;29.32;31.80;;
72805;Laerm;60920;48.748;19.142;2023-12-14T08:36:42;30.59;29.35;31.77;;
72805;Laerm;60920;48.748;19.142;2023-12-14T08:39:07;30.56;29.17;31.86;;
72805;Laerm;60920;48.748;19.142;2023-12-14T08:41:33;30.54;29.07;31.68;;
72805;Laerm;60920;48.748;19.142;2023-12-14T08:43:58;30.57;29.20;31.77;;
72805;Laerm;60920;48.748;19.142;2023-12-14T08:46:23;30.59;29.21;31.78;;
72805;Laerm;60920;48.748;19.142;2023-12-14T08:48:49;30.62;29.40;31.73;;
72805;Laerm;60920;48.748;19.142;2023-12-14T08:51:14;30.60;29.29;32.10;;
72805;Laerm;60920;48.748;19.142;2023-12-14T08:53:39;30.59;29.39;31.91;;
72805;Laerm;60920;48.748;19.142;2023-12-14T08:56:05;30.58;29.34;31.73;;
72805;Laerm;60920;48.748;19.142;2023-12-14T08:58:30;30.57;29.33;31.72;;
72805;Laerm;60920;48.748;19.142;2023-12-14T09:00:55;30.58;29.23;32.02;;
72805;Laerm;60920;48.748;19.142;2023-12-14T09:03:21;30.60;29.38;31.78;;
72805;Laerm;60920;48.748;19.142;2023-12-14T09:05:47;30.62;29.22;31.98;;
72805;Laerm;60920;48.748;19.142;2023-12-14T09:08:12;30.61;29.17;31.94;;
72805;Laerm;60920;48.748;19.142;2023-12-14T09:10:38;30.63;29.27;31.88;;
72805;Laerm;60920;48.748;19.142;2023-12-14T09:13:04;30.64;28.89;31.88;;
72805;Laerm;60920;48.748;19.142;2023-12-14T09:15:30;30.67;29.41;31.79;;
72805;Laerm;60920;48.748;19.142;2023-12-14T09:17:56;30.64;29.31;31.88;;
72805;Laerm;60920;48.748;19.142;2023-12-14T09:20:21;30.64;29.30;31.74;;
72805;Laerm;60920;48.748;19.142;2023-12-14T09:22:46;30.65;29.35;31.87;;
72805;Laerm;60920;48.748;19.142;2023-12-14T09:25:12;30.66;28.93;31.84;;
72805;Laerm;60920;48.748;19.142;2023-12-14T09:27:37;30.64;29.10;31.95;;
72805;Laerm;60920;48.748;19.142;2023-12-14T09:30:03;30.64;29.14;32.05;;
72805;Laerm;60920;48.748;19.142;2023-12-14T09:32:28;30.69;29.45;31.96;;
72805;Laerm;60920;48.748;19.142;2023-12-14T09:34:53;30.66;29.46;32.02;;
72805;Laerm;60920;48.748;19.142;2023-12-14T09:37:21;30.71;29.36;31.93;;
72805;Laerm;60920;48.748;19.142;2023-12-14T09:39:46;30.70;28.96;31.90;;
72805;Laerm;60920;48.748;19.142;2023-12-14T09:42:12;30.69;29.32;31.82;;
72805;Laerm;60920;48.748;19.142;2023-12-14T09:44:39;30.67;29.24;32.00;;
72805;Laerm;60920;48.748;19.142;2023-12-14T09:47:05;30.64;29.32;31.89;;
72805;Laerm;60920;48.748;19.142;2023-12-14T09:49:31;30.57;29.38;31.82;;
72805;Laerm;60920;48.748;19.142;2023-12-14T09:51:57;30.62;29.07;32.16;;
72805;Laerm;60920;48.748;19.142;2023-12-14T09:54:23;30.55;29.31;36.54;;
72805;Laerm;60920;48.748;19.142;2023-12-14T09:56:48;30.61;29.19;31.80;;
72805;Laerm;60920;48.748;19.142;2023-12-14T09:59:14;30.67;29.41;31.92;;
72805;Laerm;60920;48.748;19.142;2023-12-14T10:01:39;30.70;29.46;31.90;;
72805;Laerm;60920;48.748;19.142;2023-12-14T10:04:11;30.62;29.33;31.86;;
72805;Laerm;60920;48.748;19.142;2023-12-14T10:06:37;30.62;29.17;31.90;;
72805;Laerm;60920;48.748;19.142;2023-12-14T10:09:03;30.54;29.16;31.94;;
72805;Laerm;60920;48.748;19.142;2023-12-14T10:11:29;30.57;29.27;31.87;;
72805;Laerm;60920;48.748;19.142;2023-12-14T10:13:55;30.60;29.47;31.88;;
72805;Laerm;60920;48.748;19.142;2023-12-14T10:16:27;30.68;29.37;31.95;;
72805;Laerm;60920;48.748;19.142;2023-12-14T10:18:54;30.69;29.41;31.95;;
72805;Laerm;60920;48.748;19.142;2023-12-14T10:21:20;30.65;29.34;31.79;;
72805;Laerm;60920;48.748;19.142;2023-12-14T10:23:46;30.69;29.34;31.82;;
72805;Laerm;60920;48.748;19.142;2023-12-14T10:26:11;30.74;29.28;31.89;;
72805;Laerm;60920;48.748;19.142;2023-12-14T10:28:39;30.63;29.38;31.76;;
72805;Laerm;60920;48.748;19.142;2023-12-14T10:31:04;30.65;29.21;31.95;;
72805;Laerm;60920;48.748;19.142;2023-12-14T10:33:30;30.68;29.35;32.00;;
72805;Laerm;60920;48.748;19.142;2023-12-14T10:35:56;30.60;29.40;31.78;;
72805;Laerm;60920;48.748;19.142;2023-12-14T10:38:21;30.51;29.16;31.67;;
72805;Laerm;60920;48.748;19.142;2023-12-14T10:40:49;30.55;29.17;31.89;;
72805;Laerm;60920;48.748;19.142;2023-12-14T10:43:16;30.56;28.65;31.74;;
72805;Laerm;60920;48.748;19.142;2023-12-14T10:45:42;30.62;29.32;31.87;;
72805;Laerm;60920;48.748;19.142;2023-12-14T10:48:08;30.63;29.02;32.10;;
72805;Laerm;60920;48.748;19.142;2023-12-14T10:50:34;30.57;29.18;31.74;;
72805;Laerm;60920;48.748;19.142;2023-12-14T10:53:01;30.58;29.29;31.91;;
72805;Laerm;60920;48.748;19.142;2023-12-14T10:55:36;30.47;29.26;31.61;;
72805;Laerm;60920;48.748;19.142;2023-12-14T10:58:03;30.50;29.25;31.64;;
72805;Laerm;60920;48.748;19.142;2023-12-14T11:00:28;30.49;29.16;31.73;;
72805;Laerm;60920;48.748;19.142;2023-12-14T11:02:54;30.34;28.93;31.73;;
72805;Laerm;60920;48.748;19.142;2023-12-14T11:05:21;30.44;29.01;32.19;;
72805;Laerm;60920;48.748;19.142;2023-12-14T11:07:59;30.24;28.79;31.72;;
72805;Laerm;60920;48.748;19.142;2023-12-14T11:10:26;30.22;28.74;31.62;;
72805;Laerm;60920;48.748;19.142;2023-12-14T11:12:56;30.26;29.00;31.50;;
72805;Laerm;60920;48.748;19.142;2023-12-14T11:15:25;30.27;28.98;31.58;;
72805;Laerm;60920;48.748;19.142;2023-12-14T11:25:53;30.44;29.12;31.79;;
72805;Laerm;60920;48.748;19.142;2023-12-14T11:28:19;30.39;28.99;31.77;;
72805;Laerm;60920;48.748;19.142;2023-12-14T11:30:44;30.35;28.96;31.64;;
72805;Laerm;60920;48.748;19.142;2023-12-14T11:33:10;30.49;29.23;31.87;;
72805;Laerm;60920;48.748;19.142;2023-12-14T11:35:35;30.48;29.16;31.78;;
72805;Laerm;60920;48.748;19.142;2023-12-14T11:38:01;30.54;29.04;31.71;;
72805;Laerm;60920;48.748;19.142;2023-12-14T11:40:30;30.51;28.82;31.77;;
72805;Laerm;60920;48.748;19.142;2023-12-14T11:42:59;30.55;29.28;32.07;;
72805;Laerm;60920;48.748;19.142;2023-12-14T11:45:24;30.62;29.30;31.76;;
72805;Laerm;60920;48.748;19.142;2023-12-14T11:47:51;30.53;29.09;31.88;;
72805;Laerm;60920;48.748;19.142;2023-12-14T11:50:16;30.43;29.14;31.74;;
72805;Laerm;60920;48.748;19.142;2023-12-14T11:52:41;30.45;28.94;31.94;;
72805;Laerm;60920;48.748;19.142;2023-12-14T11:55:07;30.48;29.06;31.65;;
72805;Laerm;60920;48.748;19.142;2023-12-14T11:57:34;30.48;29.07;31.75;;
72805;Laerm;60920;48.748;19.142;2023-12-14T12:00:00;30.41;28.98;31.63;;
72805;Laerm;60920;48.748;19.142;2023-12-14T12:02:26;30.50;29.13;31.67;;
72805;Laerm;60920;48.748;19.142;2023-12-14T12:04:51;30.45;28.93;32.01;;
72805;Laerm;60920;48.748;19.142;2023-12-14T12:07:17;30.49;29.17;31.88;;
72805;Laerm;60920;48.748;19.142;2023-12-14T12:09:42;30.52;29.24;31.73;;
72805;Laerm;60920;48.748;19.142;2023-12-14T12:12:08;30.55;29.22;31.82;;
72805;Laerm;60920;48.748;19.142;2023-12-14T12:14:34;30.48;29.17;31.80;;
72805;Laerm;60920;48.748;19.142;2023-12-14T12:17:00;30.41;28.99;31.72;;
72805;Laerm;60920;48.748;19.142;2023-12-14T12:19:26;30.53;29.12;31.80;;
72805;Laerm;60920;48.748;19.142;2023-12-14T12:21:51;30.57;29.35;31.99;;
72805;Laerm;60920;48.748;19.142;2023-12-14T12:24:16;30.51;29.14;31.83;;
72805;Laerm;60920;48.748;19.142;2023-12-14T12:26:42;30.59;29.32;32.14;;
72805;Laerm;60920;48.748;19.142;2023-12-14T12:29:07;30.62;29.18;32.12;;
72805;Laerm;60920;48.748;19.142;2023-12-14T12:31:32;30.52;29.12;31.69;;
72805;Laerm;60920;48.748;19.142;2023-12-14T12:33:59;30.56;29.30;31.73;;
72805;Laerm;60920;48.748;19.142;2023-12-14T12:36:24;30.57;29.35;31.89;;
72805;Laerm;60920;48.748;19.142;2023-12-14T12:38:49;30.57;29.28;31.96;;
72805;Laerm;60920;48.748;19.142;2023-12-14T12:41:16;30.59;29.44;31.91;;
72805;Laerm;60920;48.748;19.142;2023-12-14T12:43:42;30.72;29.49;32.19;;
72805;Laerm;60920;48.748;19.142;2023-12-14T12:46:09;30.72;29.34;31.95;;
72805;Laerm;60920;48.748;19.142;2023-12-14T12:48:34;30.60;29.21;31.90;;
72805;Laerm;60920;48.748;19.142;2023-12-14T12:51:00;30.63;29.30;31.92;;
72805;Laerm;60920;48.748;19.142;2023-12-14T12:53:26;30.57;28.74;31.67;;
72805;Laerm;60920;48.748;19.142;2023-12-14T12:55:52;30.54;29.30;31.70;;
72805;Laerm;60920;48.748;19.142;2023-12-14T12:58:17;30.55;29.14;31.81;;
72805;Laerm;60920;48.748;19.142;2023-12-14T13:00:42;30.46;28.82;31.73;;
72805;Laerm;60920;48.748;19.142;2023-12-14T13:03:07;30.48;29.26;31.69;;
72805;Laerm;60920;48.748;19.142;2023-12-14T13:05:33;30.48;29.09;32.04;;
72805;Laerm;60920;48.748;19.142;2023-12-14T13:07:58;30.49;29.22;31.70;;
72805;Laerm;60920;48.748;19.142;2023-12-14T13:10:23;30.41;28.98;31.67;;
72805;Laerm;60920;48.748;19.142;2023-12-14T13:12:52;30.42;29.17;31.75;;
72805;Laerm;60920;48.748;19.142;2023-12-14T13:15:17;30.45;29.20;31.75;;
72805;Laerm;60920;48.748;19.142;2023-12-14T13:17:44;30.43;29.05;32.14;;
72805;Laerm;60920;48.748;19.142;2023-12-14T13:20:09;30.49;29.14;31.85;;
72805;Laerm;60920;48.748;19.142;2023-12-14T13:22:34;30.49;29.13;31.82;;
72805;Laerm;60920;48.748;19.142;2023-12-14T13:25:00;30.53;29.15;32.01;;
72805;Laerm;60920;48.748;19.142;2023-12-14T13:27:25;30.52;29.25;31.73;;
72805;Laerm;60920;48.748;19.142;2023-12-14T13:29:51;30.50;29.00;31.67;;